sensor_id;sensor_type;location;lat;lon;timestamp;P1;durP1;ratioP1;P2;durP2;ratioP2
21233;SDS011;10774;42.178;26.578;2024-03-02T00:00:05;24.35;;;14.02;;
21233;SDS011;10774;42.178;26.578;2024-03-02T00:02:42;22.58;;;13.52;;
21233;SDS011;10774;42.178;26.578;2024-03-02T00:05:16;20.02;;;12.70;;
21233;SDS011;10774;42.178;26.578;2024-03-02T00:07:53;19.73;;;12.65;;
21233;SDS011;10774;42.178;26.578;2024-03-02T00:10:22;20.25;;;11.95;;
21233;SDS011;10774;42.178;26.578;2024-03-02T00:12:53;20.67;;;13.10;;
21233;SDS011;10774;42.178;26.578;2024-03-02T00:18:01;19.25;;;12.70;;
21233;SDS011;10774;42.178;26.578;2024-03-02T00:20:26;21.65;;;13.10;;
21233;SDS011;10774;42.178;26.578;2024-03-02T00:22:55;21.02;;;13.38;;
21233;SDS011;10774;42.178;26.578;2024-03-02T00:25:38;17.92;;;12.23;;
21233;SDS011;10774;42.178;26.578;2024-03-02T00:28:14;22.58;;;13.63;;
21233;SDS011;10774;42.178;26.578;2024-03-02T00:33:22;19.38;;;13.07;;
21233;SDS011;10774;42.178;26.578;2024-03-02T00:35:48;21.65;;;13.65;;
21233;SDS011;10774;42.178;26.578;2024-03-02T00:38:15;23.27;;;15.32;;
21233;SDS011;10774;42.178;26.578;2024-03-02T00:40:41;22.75;;;15.20;;
21233;SDS011;10774;42.178;26.578;2024-03-02T00:43:11;21.15;;;14.18;;
21233;SDS011;10774;42.178;26.578;2024-03-02T00:46:02;19.15;;;12.45;;
21233;SDS011;10774;42.178;26.578;2024-03-02T00:48:28;19.77;;;12.18;;
21233;SDS011;10774;42.178;26.578;2024-03-02T00:50:56;20.88;;;13.30;;
21233;SDS011;10774;42.178;26.578;2024-03-02T00:53:23;19.38;;;13.63;;
21233;SDS011;10774;42.178;26.578;2024-03-02T00:55:51;23.02;;;14.30;;
21233;SDS011;10774;42.178;26.578;2024-03-02T00:58:17;21.77;;;14.05;;
21233;SDS011;10774;42.178;26.578;2024-03-02T01:03:17;21.00;;;13.27;;
21233;SDS011;10774;42.178;26.578;2024-03-02T01:05:44;18.88;;;12.48;;
21233;SDS011;10774;42.178;26.578;2024-03-02T01:08:10;18.88;;;12.80;;
21233;SDS011;10774;42.178;26.578;2024-03-02T01:10:35;20.25;;;13.15;;
21233;SDS011;10774;42.178;26.578;2024-03-02T01:13:01;20.45;;;12.82;;
21233;SDS011;10774;42.178;26.578;2024-03-02T01:15:26;22.13;;;13.52;;
21233;SDS011;10774;42.178;26.578;2024-03-02T01:17:52;21.65;;;13.57;;
21233;SDS011;10774;42.178;26.578;2024-03-02T01:20:17;23.02;;;14.57;;
21233;SDS011;10774;42.178;26.578;2024-03-02T01:22:43;23.20;;;13.35;;
21233;SDS011;10774;42.178;26.578;2024-03-02T01:25:08;23.17;;;13.77;;
21233;SDS011;10774;42.178;26.578;2024-03-02T01:27:34;22.98;;;13.10;;
21233;SDS011;10774;42.178;26.578;2024-03-02T01:29:59;22.35;;;12.85;;
21233;SDS011;10774;42.178;26.578;2024-03-02T01:32:25;27.52;;;13.90;;
21233;SDS011;10774;42.178;26.578;2024-03-02T01:34:50;25.20;;;13.45;;
21233;SDS011;10774;42.178;26.578;2024-03-02T01:37:16;24.85;;;12.75;;
21233;SDS011;10774;42.178;26.578;2024-03-02T01:39:41;24.25;;;14.35;;
21233;SDS011;10774;42.178;26.578;2024-03-02T01:42:06;21.67;;;13.23;;
21233;SDS011;10774;42.178;26.578;2024-03-02T01:44:32;20.38;;;12.63;;
21233;SDS011;10774;42.178;26.578;2024-03-02T01:46:57;20.50;;;11.65;;
21233;SDS011;10774;42.178;26.578;2024-03-02T01:49:23;27.77;;;14.40;;
21233;SDS011;10774;42.178;26.578;2024-03-02T01:51:49;24.38;;;13.73;;
21233;SDS011;10774;42.178;26.578;2024-03-02T01:54:14;25.98;;;14.45;;
21233;SDS011;10774;42.178;26.578;2024-03-02T01:56:39;23.38;;;13.75;;
21233;SDS011;10774;42.178;26.578;2024-03-02T01:59:05;24.75;;;12.85;;
21233;SDS011;10774;42.178;26.578;2024-03-02T02:01:31;26.70;;;13.30;;
21233;SDS011;10774;42.178;26.578;2024-03-02T02:03:56;26.60;;;13.35;;
21233;SDS011;10774;42.178;26.578;2024-03-02T02:06:22;25.02;;;12.60;;
21233;SDS011;10774;42.178;26.578;2024-03-02T02:08:47;26.08;;;13.90;;
21233;SDS011;10774;42.178;26.578;2024-03-02T02:11:16;24.55;;;12.40;;
21233;SDS011;10774;42.178;26.578;2024-03-02T02:13:42;27.00;;;13.15;;
21233;SDS011;10774;42.178;26.578;2024-03-02T02:16:07;24.17;;;12.57;;
21233;SDS011;10774;42.178;26.578;2024-03-02T02:18:33;26.05;;;13.32;;
21233;SDS011;10774;42.178;26.578;2024-03-02T02:21:01;25.10;;;13.52;;
21233;SDS011;10774;42.178;26.578;2024-03-02T02:23:27;24.58;;;13.55;;
21233;SDS011;10774;42.178;26.578;2024-03-02T02:25:53;24.40;;;14.07;;
21233;SDS011;10774;42.178;26.578;2024-03-02T02:28:18;23.83;;;13.07;;
21233;SDS011;10774;42.178;26.578;2024-03-02T02:30:43;22.83;;;11.95;;
21233;SDS011;10774;42.178;26.578;2024-03-02T02:33:09;21.40;;;13.00;;
21233;SDS011;10774;42.178;26.578;2024-03-02T02:35:35;23.08;;;13.75;;
21233;SDS011;10774;42.178;26.578;2024-03-02T02:38:01;22.15;;;12.77;;
21233;SDS011;10774;42.178;26.578;2024-03-02T02:40:28;24.00;;;12.52;;
21233;SDS011;10774;42.178;26.578;2024-03-02T02:42:59;27.02;;;13.50;;
21233;SDS011;10774;42.178;26.578;2024-03-02T02:45:24;21.73;;;12.63;;
21233;SDS011;10774;42.178;26.578;2024-03-02T02:47:50;24.80;;;13.27;;
21233;SDS011;10774;42.178;26.578;2024-03-02T02:50:15;22.33;;;12.35;;
21233;SDS011;10774;42.178;26.578;2024-03-02T02:52:41;23.55;;;12.60;;
21233;SDS011;10774;42.178;26.578;2024-03-02T02:55:07;24.77;;;12.95;;
21233;SDS011;10774;42.178;26.578;2024-03-02T02:57:35;27.08;;;13.02;;
21233;SDS011;10774;42.178;26.578;2024-03-02T03:00:03;28.27;;;11.98;;
21233;SDS011;10774;42.178;26.578;2024-03-02T03:02:34;23.70;;;12.18;;
21233;SDS011;10774;42.178;26.578;2024-03-02T03:05:00;30.40;;;12.95;;
21233;SDS011;10774;42.178;26.578;2024-03-02T03:07:26;23.80;;;12.18;;
21233;SDS011;10774;42.178;26.578;2024-03-02T03:09:51;20.50;;;12.68;;
21233;SDS011;10774;42.178;26.578;2024-03-02T03:12:17;24.33;;;12.68;;
21233;SDS011;10774;42.178;26.578;2024-03-02T03:14:42;21.60;;;11.95;;
21233;SDS011;10774;42.178;26.578;2024-03-02T03:17:07;24.67;;;12.90;;
21233;SDS011;10774;42.178;26.578;2024-03-02T03:19:33;20.95;;;12.25;;
21233;SDS011;10774;42.178;26.578;2024-03-02T03:21:58;17.67;;;10.57;;
21233;SDS011;10774;42.178;26.578;2024-03-02T03:24:24;20.45;;;12.07;;
21233;SDS011;10774;42.178;26.578;2024-03-02T03:26:49;21.35;;;11.40;;
21233;SDS011;10774;42.178;26.578;2024-03-02T03:29:15;26.23;;;12.60;;
21233;SDS011;10774;42.178;26.578;2024-03-02T03:31:40;26.10;;;12.98;;
21233;SDS011;10774;42.178;26.578;2024-03-02T03:34:06;24.95;;;13.32;;
21233;SDS011;10774;42.178;26.578;2024-03-02T03:36:31;26.50;;;13.90;;
21233;SDS011;10774;42.178;26.578;2024-03-02T03:38:56;30.27;;;14.48;;
21233;SDS011;10774;42.178;26.578;2024-03-02T03:41:22;22.33;;;12.25;;
21233;SDS011;10774;42.178;26.578;2024-03-02T03:43:48;23.17;;;12.20;;
21233;SDS011;10774;42.178;26.578;2024-03-02T03:46:13;24.23;;;12.95;;
21233;SDS011;10774;42.178;26.578;2024-03-02T03:48:38;26.77;;;12.23;;
21233;SDS011;10774;42.178;26.578;2024-03-02T03:51:04;22.83;;;12.38;;
21233;SDS011;10774;42.178;26.578;2024-03-02T03:53:29;29.00;;;15.07;;
21233;SDS011;10774;42.178;26.578;2024-03-02T03:55:55;28.02;;;15.00;;
21233;SDS011;10774;42.178;26.578;2024-03-02T03:58:20;24.70;;;13.20;;
21233;SDS011;10774;42.178;26.578;2024-03-02T04:00:46;23.92;;;12.55;;
21233;SDS011;10774;42.178;26.578;2024-03-02T04:03:11;23.45;;;13.00;;
21233;SDS011;10774;42.178;26.578;2024-03-02T04:05:37;23.42;;;12.63;;
21233;SDS011;10774;42.178;26.578;2024-03-02T04:08:03;24.00;;;11.35;;
21233;SDS011;10774;42.178;26.578;2024-03-02T04:10:29;24.98;;;11.88;;
21233;SDS011;10774;42.178;26.578;2024-03-02T04:12:55;24.40;;;12.82;;
21233;SDS011;10774;42.178;26.578;2024-03-02T04:15:20;25.67;;;15.32;;
21233;SDS011;10774;42.178;26.578;2024-03-02T04:17:48;27.83;;;13.63;;
21233;SDS011;10774;42.178;26.578;2024-03-02T04:20:13;24.55;;;13.02;;
21233;SDS011;10774;42.178;26.578;2024-03-02T04:22:39;22.30;;;12.60;;
21233;SDS011;10774;42.178;26.578;2024-03-02T04:25:04;24.35;;;12.30;;
21233;SDS011;10774;42.178;26.578;2024-03-02T04:27:30;25.08;;;13.10;;
21233;SDS011;10774;42.178;26.578;2024-03-02T04:29:59;22.40;;;13.20;;
21233;SDS011;10774;42.178;26.578;2024-03-02T04:32:26;27.17;;;13.93;;
21233;SDS011;10774;42.178;26.578;2024-03-02T04:34:52;23.85;;;12.70;;
21233;SDS011;10774;42.178;26.578;2024-03-02T04:37:17;25.13;;;13.30;;
21233;SDS011;10774;42.178;26.578;2024-03-02T04:39:43;30.85;;;14.15;;
21233;SDS011;10774;42.178;26.578;2024-03-02T04:42:08;24.52;;;14.10;;
21233;SDS011;10774;42.178;26.578;2024-03-02T04:44:34;24.35;;;14.02;;
21233;SDS011;10774;42.178;26.578;2024-03-02T04:46:59;25.80;;;14.55;;
21233;SDS011;10774;42.178;26.578;2024-03-02T04:49:25;28.67;;;14.65;;
21233;SDS011;10774;42.178;26.578;2024-03-02T04:51:50;27.92;;;14.27;;
21233;SDS011;10774;42.178;26.578;2024-03-02T04:54:16;26.63;;;14.18;;
21233;SDS011;10774;42.178;26.578;2024-03-02T04:56:41;31.58;;;15.93;;
21233;SDS011;10774;42.178;26.578;2024-03-02T04:59:14;29.75;;;16.40;;
21233;SDS011;10774;42.178;26.578;2024-03-02T05:01:39;24.67;;;15.07;;
21233;SDS011;10774;42.178;26.578;2024-03-02T05:04:05;26.98;;;14.48;;
21233;SDS011;10774;42.178;26.578;2024-03-02T05:06:30;29.17;;;15.05;;
21233;SDS011;10774;42.178;26.578;2024-03-02T05:08:56;33.63;;;16.67;;
21233;SDS011;10774;42.178;26.578;2024-03-02T05:11:21;67.75;;;33.60;;
21233;SDS011;10774;42.178;26.578;2024-03-02T05:14:02;40.63;;;20.02;;
21233;SDS011;10774;42.178;26.578;2024-03-02T05:16:28;39.58;;;21.77;;
21233;SDS011;10774;42.178;26.578;2024-03-02T05:18:53;58.08;;;33.15;;
21233;SDS011;10774;42.178;26.578;2024-03-02T05:21:19;67.03;;;33.05;;
21233;SDS011;10774;42.178;26.578;2024-03-02T05:23:44;94.72;;;42.92;;
21233;SDS011;10774;42.178;26.578;2024-03-02T05:26:10;162.48;;;93.60;;
21233;SDS011;10774;42.178;26.578;2024-03-02T05:28:38;131.32;;;84.15;;
21233;SDS011;10774;42.178;26.578;2024-03-02T05:31:03;57.80;;;34.95;;
21233;SDS011;10774;42.178;26.578;2024-03-02T05:33:30;79.20;;;43.75;;
21233;SDS011;10774;42.178;26.578;2024-03-02T05:35:56;44.60;;;30.88;;
21233;SDS011;10774;42.178;26.578;2024-03-02T05:38:22;54.40;;;37.22;;
21233;SDS011;10774;42.178;26.578;2024-03-02T05:40:47;57.55;;;32.63;;
21233;SDS011;10774;42.178;26.578;2024-03-02T05:43:13;67.53;;;36.55;;
21233;SDS011;10774;42.178;26.578;2024-03-02T05:45:39;45.58;;;26.65;;
21233;SDS011;10774;42.178;26.578;2024-03-02T05:48:13;39.60;;;21.73;;
21233;SDS011;10774;42.178;26.578;2024-03-02T05:50:39;42.53;;;24.65;;
21233;SDS011;10774;42.178;26.578;2024-03-02T05:53:04;32.03;;;19.23;;
21233;SDS011;10774;42.178;26.578;2024-03-02T05:55:30;38.78;;;23.73;;
21233;SDS011;10774;42.178;26.578;2024-03-02T05:57:56;41.88;;;24.98;;
21233;SDS011;10774;42.178;26.578;2024-03-02T06:00:45;43.13;;;24.85;;
21233;SDS011;10774;42.178;26.578;2024-03-02T06:03:11;35.75;;;20.58;;
21233;SDS011;10774;42.178;26.578;2024-03-02T06:05:38;39.67;;;23.90;;
21233;SDS011;10774;42.178;26.578;2024-03-02T06:08:03;38.03;;;24.27;;
21233;SDS011;10774;42.178;26.578;2024-03-02T06:10:29;32.78;;;21.73;;
21233;SDS011;10774;42.178;26.578;2024-03-02T06:12:54;39.20;;;23.48;;
21233;SDS011;10774;42.178;26.578;2024-03-02T06:15:20;31.98;;;19.48;;
21233;SDS011;10774;42.178;26.578;2024-03-02T06:17:45;43.80;;;22.92;;
21233;SDS011;10774;42.178;26.578;2024-03-02T06:20:24;38.80;;;23.70;;
21233;SDS011;10774;42.178;26.578;2024-03-02T06:22:52;33.13;;;21.45;;
21233;SDS011;10774;42.178;26.578;2024-03-02T06:25:17;34.08;;;19.75;;
21233;SDS011;10774;42.178;26.578;2024-03-02T06:30:45;24.08;;;16.35;;
21233;SDS011;10774;42.178;26.578;2024-03-02T06:33:11;32.05;;;17.15;;
21233;SDS011;10774;42.178;26.578;2024-03-02T06:35:37;27.08;;;12.50;;
21233;SDS011;10774;42.178;26.578;2024-03-02T06:38:02;25.40;;;14.15;;
21233;SDS011;10774;42.178;26.578;2024-03-02T06:40:28;27.67;;;14.75;;
21233;SDS011;10774;42.178;26.578;2024-03-02T06:42:53;29.60;;;15.45;;
21233;SDS011;10774;42.178;26.578;2024-03-02T06:45:22;29.75;;;14.70;;
21233;SDS011;10774;42.178;26.578;2024-03-02T06:47:47;29.10;;;14.85;;
21233;SDS011;10774;42.178;26.578;2024-03-02T06:50:13;27.48;;;14.18;;
21233;SDS011;10774;42.178;26.578;2024-03-02T06:52:38;30.00;;;15.30;;
21233;SDS011;10774;42.178;26.578;2024-03-02T06:55:04;37.55;;;20.98;;
21233;SDS011;10774;42.178;26.578;2024-03-02T06:57:30;33.58;;;17.92;;
21233;SDS011;10774;42.178;26.578;2024-03-02T06:59:56;37.40;;;17.23;;
21233;SDS011;10774;42.178;26.578;2024-03-02T07:02:24;52.17;;;28.67;;
21233;SDS011;10774;42.178;26.578;2024-03-02T07:04:52;40.80;;;24.20;;
21233;SDS011;10774;42.178;26.578;2024-03-02T07:07:19;32.80;;;21.48;;
21233;SDS011;10774;42.178;26.578;2024-03-02T07:09:44;38.00;;;20.05;;
21233;SDS011;10774;42.178;26.578;2024-03-02T07:12:10;29.40;;;15.27;;
21233;SDS011;10774;42.178;26.578;2024-03-02T07:14:35;29.25;;;15.10;;
21233;SDS011;10774;42.178;26.578;2024-03-02T07:17:22;33.75;;;17.05;;
21233;SDS011;10774;42.178;26.578;2024-03-02T07:19:47;31.05;;;17.33;;
21233;SDS011;10774;42.178;26.578;2024-03-02T07:22:13;29.13;;;15.25;;
21233;SDS011;10774;42.178;26.578;2024-03-02T07:24:39;25.83;;;14.55;;
21233;SDS011;10774;42.178;26.578;2024-03-02T07:27:08;26.83;;;16.20;;
21233;SDS011;10774;42.178;26.578;2024-03-02T07:29:35;24.20;;;13.02;;
21233;SDS011;10774;42.178;26.578;2024-03-02T07:32:00;28.67;;;15.35;;
21233;SDS011;10774;42.178;26.578;2024-03-02T07:34:26;25.50;;;15.38;;
21233;SDS011;10774;42.178;26.578;2024-03-02T07:36:51;33.55;;;15.43;;
21233;SDS011;10774;42.178;26.578;2024-03-02T07:39:17;29.23;;;14.90;;
21233;SDS011;10774;42.178;26.578;2024-03-02T07:41:45;23.80;;;13.77;;
21233;SDS011;10774;42.178;26.578;2024-03-02T07:44:11;25.50;;;14.60;;
21233;SDS011;10774;42.178;26.578;2024-03-02T07:46:39;22.88;;;13.05;;
21233;SDS011;10774;42.178;26.578;2024-03-02T07:49:08;32.25;;;16.83;;
21233;SDS011;10774;42.178;26.578;2024-03-02T07:51:34;34.83;;;15.88;;
21233;SDS011;10774;42.178;26.578;2024-03-02T07:54:02;37.47;;;17.70;;
21233;SDS011;10774;42.178;26.578;2024-03-02T07:56:27;34.33;;;20.05;;
21233;SDS011;10774;42.178;26.578;2024-03-02T07:58:53;40.72;;;22.73;;
21233;SDS011;10774;42.178;26.578;2024-03-02T08:01:19;33.88;;;21.02;;
21233;SDS011;10774;42.178;26.578;2024-03-02T08:03:44;40.53;;;22.33;;
21233;SDS011;10774;42.178;26.578;2024-03-02T08:06:15;22.23;;;14.68;;
21233;SDS011;10774;42.178;26.578;2024-03-02T08:08:41;24.73;;;12.93;;
21233;SDS011;10774;42.178;26.578;2024-03-02T08:11:09;30.10;;;16.15;;
21233;SDS011;10774;42.178;26.578;2024-03-02T08:13:38;33.72;;;18.67;;
21233;SDS011;10774;42.178;26.578;2024-03-02T08:16:04;28.95;;;16.45;;
21233;SDS011;10774;42.178;26.578;2024-03-02T08:18:51;26.73;;;16.35;;
21233;SDS011;10774;42.178;26.578;2024-03-02T08:21:17;34.83;;;21.08;;
21233;SDS011;10774;42.178;26.578;2024-03-02T08:23:43;32.15;;;20.80;;
21233;SDS011;10774;42.178;26.578;2024-03-02T08:26:09;25.45;;;16.85;;
21233;SDS011;10774;42.178;26.578;2024-03-02T08:28:37;19.08;;;12.55;;
21233;SDS011;10774;42.178;26.578;2024-03-02T08:31:05;31.50;;;17.60;;
21233;SDS011;10774;42.178;26.578;2024-03-02T08:33:31;36.67;;;22.45;;
21233;SDS011;10774;42.178;26.578;2024-03-02T08:35:57;17.65;;;10.30;;
21233;SDS011;10774;42.178;26.578;2024-03-02T08:38:22;21.98;;;12.18;;
21233;SDS011;10774;42.178;26.578;2024-03-02T08:40:50;19.48;;;11.40;;
21233;SDS011;10774;42.178;26.578;2024-03-02T08:43:15;22.55;;;11.40;;
21233;SDS011;10774;42.178;26.578;2024-03-02T08:45:41;24.15;;;13.90;;
21233;SDS011;10774;42.178;26.578;2024-03-02T08:48:09;21.08;;;12.10;;
21233;SDS011;10774;42.178;26.578;2024-03-02T08:50:35;24.45;;;13.05;;
21233;SDS011;10774;42.178;26.578;2024-03-02T08:53:01;24.50;;;14.80;;
21233;SDS011;10774;42.178;26.578;2024-03-02T08:55:26;25.13;;;14.82;;
21233;SDS011;10774;42.178;26.578;2024-03-02T08:57:51;38.40;;;18.80;;
21233;SDS011;10774;42.178;26.578;2024-03-02T09:00:17;30.38;;;18.52;;
21233;SDS011;10774;42.178;26.578;2024-03-02T09:02:44;31.83;;;18.25;;
21233;SDS011;10774;42.178;26.578;2024-03-02T09:05:10;30.33;;;15.18;;
21233;SDS011;10774;42.178;26.578;2024-03-02T09:07:35;34.28;;;19.20;;
21233;SDS011;10774;42.178;26.578;2024-03-02T09:10:01;24.25;;;14.65;;
21233;SDS011;10774;42.178;26.578;2024-03-02T09:12:26;23.88;;;14.38;;
21233;SDS011;10774;42.178;26.578;2024-03-02T09:14:51;20.13;;;12.20;;
21233;SDS011;10774;42.178;26.578;2024-03-02T09:17:17;22.58;;;14.68;;
21233;SDS011;10774;42.178;26.578;2024-03-02T09:19:42;21.20;;;12.77;;
21233;SDS011;10774;42.178;26.578;2024-03-02T09:22:08;23.48;;;13.68;;
21233;SDS011;10774;42.178;26.578;2024-03-02T09:24:34;22.58;;;14.77;;
21233;SDS011;10774;42.178;26.578;2024-03-02T09:27:00;22.23;;;13.82;;
21233;SDS011;10774;42.178;26.578;2024-03-02T09:29:25;17.98;;;11.60;;
21233;SDS011;10774;42.178;26.578;2024-03-02T09:31:51;19.55;;;11.43;;
21233;SDS011;10774;42.178;26.578;2024-03-02T09:34:16;19.98;;;11.73;;
21233;SDS011;10774;42.178;26.578;2024-03-02T09:36:42;23.70;;;12.90;;
21233;SDS011;10774;42.178;26.578;2024-03-02T09:39:08;20.33;;;12.77;;
21233;SDS011;10774;42.178;26.578;2024-03-02T09:41:35;21.98;;;13.13;;
21233;SDS011;10774;42.178;26.578;2024-03-02T09:44:02;19.75;;;13.23;;
21233;SDS011;10774;42.178;26.578;2024-03-02T09:46:27;18.83;;;10.88;;
21233;SDS011;10774;42.178;26.578;2024-03-02T09:48:53;31.70;;;18.20;;
21233;SDS011;10774;42.178;26.578;2024-03-02T09:51:19;19.30;;;10.73;;
21233;SDS011;10774;42.178;26.578;2024-03-02T09:53:44;23.10;;;13.40;;
21233;SDS011;10774;42.178;26.578;2024-03-02T09:56:11;21.35;;;12.38;;
21233;SDS011;10774;42.178;26.578;2024-03-02T09:58:38;17.08;;;11.35;;
21233;SDS011;10774;42.178;26.578;2024-03-02T10:01:05;29.73;;;16.58;;
21233;SDS011;10774;42.178;26.578;2024-03-02T10:03:31;22.25;;;11.85;;
21233;SDS011;10774;42.178;26.578;2024-03-02T10:06:20;15.27;;;9.40;;
21233;SDS011;10774;42.178;26.578;2024-03-02T10:08:53;30.92;;;16.17;;
21233;SDS011;10774;42.178;26.578;2024-03-02T10:11:27;16.95;;;10.77;;
21233;SDS011;10774;42.178;26.578;2024-03-02T10:16:35;20.67;;;11.75;;
21233;SDS011;10774;42.178;26.578;2024-03-02T10:19:21;22.27;;;11.30;;
21233;SDS011;10774;42.178;26.578;2024-03-02T10:21:48;22.98;;;13.52;;
21233;SDS011;10774;42.178;26.578;2024-03-02T10:24:17;17.10;;;10.98;;
21233;SDS011;10774;42.178;26.578;2024-03-02T10:26:44;15.18;;;10.70;;
21233;SDS011;10774;42.178;26.578;2024-03-02T10:29:10;17.27;;;10.55;;
21233;SDS011;10774;42.178;26.578;2024-03-02T10:31:39;13.25;;;9.15;;
21233;SDS011;10774;42.178;26.578;2024-03-02T10:34:05;18.30;;;9.98;;
21233;SDS011;10774;42.178;26.578;2024-03-02T10:36:35;19.15;;;10.50;;
21233;SDS011;10774;42.178;26.578;2024-03-02T10:39:02;22.73;;;10.55;;
21233;SDS011;10774;42.178;26.578;2024-03-02T10:41:29;18.02;;;8.98;;
21233;SDS011;10774;42.178;26.578;2024-03-02T10:43:58;19.48;;;11.52;;
21233;SDS011;10774;42.178;26.578;2024-03-02T10:46:27;20.58;;;11.02;;
21233;SDS011;10774;42.178;26.578;2024-03-02T10:48:57;23.13;;;12.60;;
21233;SDS011;10774;42.178;26.578;2024-03-02T10:51:24;17.08;;;10.43;;
21233;SDS011;10774;42.178;26.578;2024-03-02T10:53:51;16.17;;;9.50;;
21233;SDS011;10774;42.178;26.578;2024-03-02T10:56:21;18.02;;;9.65;;
21233;SDS011;10774;42.178;26.578;2024-03-02T11:01:20;20.23;;;9.40;;
21233;SDS011;10774;42.178;26.578;2024-03-02T11:03:46;16.05;;;9.35;;
21233;SDS011;10774;42.178;26.578;2024-03-02T11:06:12;17.80;;;10.27;;
21233;SDS011;10774;42.178;26.578;2024-03-02T11:08:38;15.25;;;9.85;;
21233;SDS011;10774;42.178;26.578;2024-03-02T11:11:06;18.15;;;9.43;;
21233;SDS011;10774;42.178;26.578;2024-03-02T11:13:36;16.20;;;9.50;;
21233;SDS011;10774;42.178;26.578;2024-03-02T11:16:16;15.85;;;9.60;;
21233;SDS011;10774;42.178;26.578;2024-03-02T11:19:15;16.00;;;8.35;;
21233;SDS011;10774;42.178;26.578;2024-03-02T11:21:41;17.15;;;9.50;;
21233;SDS011;10774;42.178;26.578;2024-03-02T11:26:49;17.38;;;9.48;;
21233;SDS011;10774;42.178;26.578;2024-03-02T11:32:22;19.58;;;10.45;;
21233;SDS011;10774;42.178;26.578;2024-03-02T11:34:51;35.75;;;14.18;;
21233;SDS011;10774;42.178;26.578;2024-03-02T11:37:17;19.85;;;10.48;;
21233;SDS011;10774;42.178;26.578;2024-03-02T11:39:45;22.52;;;11.02;;
21233;SDS011;10774;42.178;26.578;2024-03-02T11:42:12;18.08;;;10.73;;
21233;SDS011;10774;42.178;26.578;2024-03-02T11:44:47;16.40;;;9.23;;
21233;SDS011;10774;42.178;26.578;2024-03-02T11:47:14;17.35;;;8.73;;
21233;SDS011;10774;42.178;26.578;2024-03-02T11:49:50;21.10;;;9.80;;
21233;SDS011;10774;42.178;26.578;2024-03-02T11:52:19;23.00;;;9.95;;
21233;SDS011;10774;42.178;26.578;2024-03-02T11:54:46;16.15;;;8.98;;
21233;SDS011;10774;42.178;26.578;2024-03-02T11:57:13;15.23;;;8.77;;
21233;SDS011;10774;42.178;26.578;2024-03-02T11:59:42;11.32;;;7.47;;
21233;SDS011;10774;42.178;26.578;2024-03-02T12:02:14;18.88;;;10.43;;
21233;SDS011;10774;42.178;26.578;2024-03-02T12:04:41;17.48;;;10.27;;
21233;SDS011;10774;42.178;26.578;2024-03-02T12:07:07;15.45;;;9.95;;
21233;SDS011;10774;42.178;26.578;2024-03-02T12:09:35;20.13;;;10.05;;
21233;SDS011;10774;42.178;26.578;2024-03-02T12:12:01;18.98;;;11.25;;
21233;SDS011;10774;42.178;26.578;2024-03-02T12:14:31;18.70;;;10.52;;
21233;SDS011;10774;42.178;26.578;2024-03-02T12:17:01;18.73;;;10.15;;
21233;SDS011;10774;42.178;26.578;2024-03-02T12:19:27;20.20;;;10.18;;
21233;SDS011;10774;42.178;26.578;2024-03-02T12:21:55;19.98;;;11.02;;
21233;SDS011;10774;42.178;26.578;2024-03-02T12:24:28;20.85;;;11.27;;
21233;SDS011;10774;42.178;26.578;2024-03-02T12:27:05;19.48;;;10.57;;
21233;SDS011;10774;42.178;26.578;2024-03-02T12:29:32;20.60;;;11.55;;
21233;SDS011;10774;42.178;26.578;2024-03-02T12:31:57;16.92;;;10.02;;
21233;SDS011;10774;42.178;26.578;2024-03-02T12:34:24;18.52;;;10.82;;
21233;SDS011;10774;42.178;26.578;2024-03-02T12:36:51;19.02;;;12.60;;
21233;SDS011;10774;42.178;26.578;2024-03-02T12:39:21;16.20;;;10.63;;
21233;SDS011;10774;42.178;26.578;2024-03-02T12:41:50;18.40;;;9.90;;
21233;SDS011;10774;42.178;26.578;2024-03-02T12:44:24;23.00;;;11.20;;
21233;SDS011;10774;42.178;26.578;2024-03-02T12:46:56;18.38;;;10.80;;
21233;SDS011;10774;42.178;26.578;2024-03-02T12:49:42;15.27;;;9.57;;
21233;SDS011;10774;42.178;26.578;2024-03-02T12:52:07;17.98;;;9.70;;
21233;SDS011;10774;42.178;26.578;2024-03-02T12:54:33;14.77;;;8.40;;
21233;SDS011;10774;42.178;26.578;2024-03-02T12:56:58;18.65;;;9.43;;
21233;SDS011;10774;42.178;26.578;2024-03-02T12:59:24;15.10;;;8.75;;
21233;SDS011;10774;42.178;26.578;2024-03-02T13:01:55;16.67;;;10.18;;
21233;SDS011;10774;42.178;26.578;2024-03-02T13:04:24;17.13;;;9.68;;
21233;SDS011;10774;42.178;26.578;2024-03-02T13:06:51;15.77;;;9.48;;
21233;SDS011;10774;42.178;26.578;2024-03-02T13:09:17;15.70;;;9.07;;
21233;SDS011;10774;42.178;26.578;2024-03-02T13:11:42;22.70;;;13.30;;
21233;SDS011;10774;42.178;26.578;2024-03-02T13:14:10;16.25;;;10.57;;
21233;SDS011;10774;42.178;26.578;2024-03-02T13:16:39;22.50;;;10.38;;
21233;SDS011;10774;42.178;26.578;2024-03-02T13:19:08;16.50;;;9.10;;
21233;SDS011;10774;42.178;26.578;2024-03-02T13:21:34;18.25;;;10.30;;
21233;SDS011;10774;42.178;26.578;2024-03-02T13:24:00;17.38;;;10.30;;
21233;SDS011;10774;42.178;26.578;2024-03-02T13:26:26;26.83;;;16.73;;
21233;SDS011;10774;42.178;26.578;2024-03-02T13:28:52;18.95;;;11.57;;
21233;SDS011;10774;42.178;26.578;2024-03-02T13:31:18;16.10;;;9.52;;
21233;SDS011;10774;42.178;26.578;2024-03-02T13:33:43;19.67;;;12.55;;
21233;SDS011;10774;42.178;26.578;2024-03-02T13:36:09;20.70;;;10.40;;
21233;SDS011;10774;42.178;26.578;2024-03-02T13:38:34;18.13;;;10.45;;
21233;SDS011;10774;42.178;26.578;2024-03-02T13:41:01;20.98;;;11.52;;
21233;SDS011;10774;42.178;26.578;2024-03-02T13:43:27;25.92;;;12.48;;
21233;SDS011;10774;42.178;26.578;2024-03-02T13:45:52;32.88;;;18.35;;
21233;SDS011;10774;42.178;26.578;2024-03-02T13:48:18;31.50;;;14.50;;
21233;SDS011;10774;42.178;26.578;2024-03-02T13:50:44;30.10;;;15.30;;
21233;SDS011;10774;42.178;26.578;2024-03-02T13:53:10;21.38;;;12.35;;
21233;SDS011;10774;42.178;26.578;2024-03-02T13:55:37;17.42;;;11.70;;
21233;SDS011;10774;42.178;26.578;2024-03-02T13:58:03;23.70;;;12.18;;
21233;SDS011;10774;42.178;26.578;2024-03-02T14:00:29;27.70;;;16.27;;
21233;SDS011;10774;42.178;26.578;2024-03-02T14:02:55;38.92;;;21.90;;
21233;SDS011;10774;42.178;26.578;2024-03-02T14:05:20;33.10;;;20.65;;
21233;SDS011;10774;42.178;26.578;2024-03-02T14:07:46;22.73;;;13.70;;
21233;SDS011;10774;42.178;26.578;2024-03-02T14:10:11;24.55;;;14.13;;
21233;SDS011;10774;42.178;26.578;2024-03-02T14:12:37;23.30;;;13.48;;
21233;SDS011;10774;42.178;26.578;2024-03-02T14:15:03;19.20;;;11.60;;
21233;SDS011;10774;42.178;26.578;2024-03-02T14:17:29;17.65;;;11.10;;
21233;SDS011;10774;42.178;26.578;2024-03-02T14:19:57;20.95;;;12.98;;
21233;SDS011;10774;42.178;26.578;2024-03-02T14:22:23;22.02;;;13.93;;
21233;SDS011;10774;42.178;26.578;2024-03-02T14:24:49;21.77;;;12.73;;
21233;SDS011;10774;42.178;26.578;2024-03-02T14:27:15;20.55;;;10.68;;
21233;SDS011;10774;42.178;26.578;2024-03-02T14:29:41;19.30;;;11.30;;
21233;SDS011;10774;42.178;26.578;2024-03-02T14:32:07;22.20;;;14.30;;